CST,Max TemperatureF,Mean TemperatureF,Min TemperatureF,Max Dew PointF,MeanDew PointF,Min DewpointF,Max Humidity, Mean Humidity, Min Humidity, Max Sea Level PressureIn, Mean Sea Level PressureIn, Min Sea Level PressureIn, Max VisibilityMiles, Mean VisibilityMiles, Min VisibilityMiles, Max Wind SpeedMPH, Mean Wind SpeedMPH, Max Gust SpeedMPH,PrecipitationIn, CloudCover, Events, WindDirDegrees
2014-1-1,57,52,48,55,50,46,94,92,88,30.24,30.10,30.01,8,4,1,12,9,,0.01,8,Rain,320
2014-1-2,60,53,46,58,47,35,94,75,51,30.42,30.23,30.04,10,6,0,28,13,34,0.00,2,Fog,341
2014-1-3,64,53,42,51,44,35,89,73,52,30.42,30.31,30.15,10,9,8,14,10,,0.00,0,,13
2014-1-4,75,64,53,61,56,50,90,78,57,30.12,29.99,29.88,10,9,8,21,8,29,0.00,1,,176
2014-1-5,77,66,52,64,53,33,90,70,45,30.31,29.99,29.84,10,9,6,31,13,41,0.00,1,,264
2014-1-6,50,44,39,33,29,23,73,58,48,30.66,30.56,30.34,10,9,8,24,19,33,0.00,4,Rain,340
2014-1-7,54,46,39,50,41,21,93,75,49,30.61,30.43,30.30,10,9,6,13,8,,0.01,8,Rain,331
2014-1-8,69,60,51,61,55,49,97,89,73,30.30,30.20,30.09,10,7,5,12,3,,0.00,8,Rain,171
2014-1-9,73,68,62,68,63,59,94,89,83,30.16,30.09,30.01,9,6,1,17,7,23,0.11,8,Rain,146
2014-1-10,81,72,64,68,65,63,94,83,61,30.00,29.90,29.81,9,7,0,24,12,33,0.01,6,Fog-Rain,182
2014-1-11,79,70,59,66,61,54,100,85,51,30.14,30.03,29.91,8,4,0,16,6,21,0.00,1,Fog,295
2014-1-12,78,68,57,70,62,52,94,80,57,30.12,30.03,29.89,8,7,5,24,9,33,0.06,2,Rain-Thunderstorm,135
2014-1-13,82,72,61,68,56,34,93,64,17,30.14,30.00,29.88,10,8,1,20,11,26,0.00,0,,323
2014-1-14,77,62,48,52,46,40,93,64,28,30.19,30.13,30.06,10,10,10,14,5,16,0.00,0,,209
2014-1-15,64,56,46,50,41,37,86,59,36,30.47,30.34,30.23,10,10,10,18,12,25,0.00,0,,11
2014-1-16,73,60,48,55,50,44,90,77,42,30.24,30.11,30.01,10,10,9,22,7,30,0.00,0,,168
2014-1-17,70,60,51,59,52,47,100,83,44,30.27,30.18,30.09,10,5,0,24,5,34,0.00,3,Fog,16
2014-1-18,75,63,51,61,55,50,100,84,43,30.22,30.17,30.08,10,6,0,16,4,22,0.01,1,Fog,192
2014-1-19,73,63,53,61,56,51,100,88,53,30.30,30.20,30.15,10,4,0,12,2,,0.00,1,Fog,37
2014-1-20,78,66,55,63,58,55,100,84,48,30.13,30.05,29.93,10,5,0,20,7,29,0.00,0,Fog,181
2014-1-21,66,56,45,60,45,33,96,65,29,30.38,30.22,30.03,10,8,0,28,10,36,0.00,1,Fog,345
2014-1-22,72,56,39,56,47,36,89,69,42,30.25,30.13,30.01,10,10,10,18,8,24,0.00,0,,186
2014-1-23,75,63,48,63,57,47,100,80,60,30.44,30.15,29.95,10,9,2,29,13,37,0.06,4,Rain,85
2014-1-24,45,40,35,44,33,30,97,81,68,30.64,30.53,30.43,10,8,4,31,23,40,0.00,8,Rain-Snow,331
2014-1-25,62,50,39,47,38,31,86,67,44,30.41,30.26,30.10,10,10,10,10,7,,0.00,4,,271
2014-1-26,77,62,46,62,55,44,93,79,54,30.08,29.91,29.79,10,9,6,18,9,26,0.00,0,,183
2014-1-27,77,66,54,67,60,38,97,84,55,30.09,29.90,29.81,10,5,0,22,8,30,0.00,6,Fog,178
2014-1-28,53,46,37,42,33,18,87,65,43,30.43,30.25,30.08,10,9,2,26,19,33,0.01,8,Rain,343
2014-1-29,46,40,33,40,33,28,89,78,70,30.45,30.38,30.28,10,9,5,21,17,28,0.45,8,Rain,319
2014-1-30,69,58,46,57,50,39,90,75,60,30.25,30.08,29.96,10,10,9,20,8,26,0.00,4,,198
2014-1-31,77,66,55,66,59,54,100,87,62,29.96,29.91,29.83,10,7,0,23,9,34,0.00,3,Fog,165